createdAt,value
2019-05-10T08:36:47.785Z,24.0000
2019-05-10T08:36:56.411Z,25.0000
2019-05-10T08:37:04.839Z,24.0000
2019-05-10T08:37:19.415Z,24.0000
2019-05-10T08:37:36.162Z,24.0000
2019-05-10T08:37:43.255Z,24.0000
2019-05-10T08:37:53.023Z,26.0000
2019-05-10T08:38:02.308Z,24.0000
2019-05-10T08:38:13.089Z,26.0000
2019-05-10T08:38:21.994Z,25.0000
2019-05-10T08:38:31.929Z,25.0000
2019-05-10T08:38:47.174Z,25.0000
2019-05-10T08:39:05.022Z,25.0000
2019-05-10T08:39:10.803Z,25.0000
2019-05-10T08:39:22.210Z,25.0000
2019-05-10T08:39:34.838Z,25.0000
2019-05-10T08:39:49.026Z,25.0000
2019-05-10T08:39:59.610Z,25.0000
2019-05-10T08:40:08.028Z,25.0000
2019-05-10T08:40:19.799Z,25.0000
2019-05-10T08:40:36.835Z,25.0000
2019-05-10T08:40:45.247Z,25.0000
2019-05-10T08:40:53.670Z,26.0000
2019-05-10T08:41:02.760Z,26.0000
2019-05-10T08:41:18.327Z,26.0000
2019-05-10T08:41:26.944Z,26.0000
2019-05-10T08:41:35.370Z,26.0000
2019-05-10T08:41:45.879Z,26.0000
2019-05-10T08:42:03.935Z,26.0000
2019-05-10T08:42:32.150Z,28.0000
2019-05-10T08:42:40.101Z,26.0000
2019-05-10T08:42:45.474Z,26.0000
2019-05-10T08:43:02.853Z,26.0000
2019-05-10T08:43:08.954Z,26.0000
2019-05-10T08:43:19.504Z,26.0000
2019-05-10T08:43:30.823Z,26.0000
2019-05-10T08:43:43.036Z,26.0000
2019-05-10T08:43:52.508Z,26.0000
2019-05-10T08:44:04.603Z,26.0000
2019-05-10T08:44:19.324Z,26.0000
2019-05-10T08:44:27.787Z,26.0000
2019-05-10T08:44:36.205Z,26.0000
2019-05-10T08:44:44.621Z,26.0000
2019-05-10T08:45:03.237Z,26.0000
2019-05-10T08:45:08.933Z,26.0000
2019-05-10T08:45:17.567Z,26.0000
2019-05-10T08:45:25.989Z,26.0000
2019-05-10T08:45:38.982Z,26.0000
2019-05-10T08:46:11.787Z,26.0000
2019-05-10T08:46:28.688Z,28.0000
2019-05-10T08:46:40.929Z,26.0000
2019-05-10T08:46:49.354Z,27.0000
2019-05-10T08:46:57.850Z,28.0000
2019-05-10T08:47:07.741Z,27.0000
2019-05-10T08:47:26.740Z,28.0000
2019-05-10T08:47:35.197Z,26.0000
2019-05-10T08:47:43.648Z,28.0000
2019-05-10T08:48:00.486Z,26.0000
2019-05-10T08:48:07.175Z,26.0000
2019-05-10T08:48:15.774Z,27.0000
2019-05-10T08:48:27.155Z,28.0000
2019-05-10T08:48:41.432Z,28.0000
2019-05-10T08:48:53.616Z,26.0000
2019-05-10T08:49:02.401Z,26.0000
2019-05-10T08:59:14.572Z,26.0000
2019-05-10T08:59:26.584Z,28.0000
2019-05-10T08:59:35.307Z,25.0000
2019-05-10T08:59:43.792Z,28.0000
2019-05-10T09:06:23.265Z,25.0000
2019-05-10T09:06:32.782Z,27.0000
2019-05-10T09:06:42.054Z,28.0000
2019-05-10T09:06:56.004Z,26.0000
2019-05-10T09:07:05.061Z,25.0000
2019-05-10T09:07:13.537Z,25.0000
2019-05-10T09:07:23.268Z,26.0000
2019-05-10T09:07:34.917Z,27.0000
2019-05-10T09:07:46.299Z,28.0000
2019-05-10T09:07:54.784Z,25.0000
2019-05-10T09:08:05.766Z,20.0000
2019-05-10T09:08:19.997Z,25.0000
2019-05-10T09:34:32.357Z,27.0000
2019-05-10T09:34:42.583Z,26.0000
2019-05-10T09:34:54.034Z,28.0000
2019-05-10T09:35:07.876Z,26.0000
2019-05-10T09:35:17.155Z,27.0000
2019-05-10T09:35:25.564Z,26.0000
2019-05-10T09:35:38.863Z,28.0000
2019-05-10T09:35:54.190Z,22.0000
2019-05-10T09:36:03.047Z,27.0000
2019-05-10T09:36:12.473Z,25.0000
2019-05-10T09:36:23.190Z,28.0000
2019-05-10T09:36:36.380Z,27.0000
2019-05-10T09:36:47.007Z,26.0000
2019-05-10T09:36:55.658Z,26.0000
2019-05-10T09:37:08.106Z,27.0000
2019-05-10T09:37:18.430Z,28.0000
2019-05-10T09:37:26.836Z,25.0000
2019-05-10T09:37:35.267Z,27.0000
2019-05-10T09:37:47.594Z,20.0000
2019-05-10T09:37:58.648Z,28.0000
2019-05-10T09:38:07.203Z,27.0000
2019-05-10T09:38:15.647Z,26.0000
2019-05-10T09:38:28.620Z,28.0000
2019-05-10T09:38:40.375Z,28.0000
2019-05-10T09:38:52.659Z,28.0000
2019-05-10T09:39:03.373Z,26.0000
2019-05-10T09:39:17.558Z,26.0000
2019-05-10T09:39:26.305Z,27.0000
2019-05-10T09:39:34.793Z,26.0000
2019-05-10T09:39:43.268Z,26.0000
2019-05-10T09:39:55.488Z,26.0000
2019-05-10T09:40:10.013Z,28.0000
2019-05-10T09:40:21.992Z,27.0000
2019-05-10T09:50:16.807Z,25.0000
2019-05-10T09:50:30.417Z,24.0000
2019-05-10T09:50:47.173Z,28.0000
2019-05-10T09:50:57.222Z,30.0000
2019-05-10T09:51:08.801Z,29.0000
2019-05-10T09:51:25.605Z,30.0000
2019-05-10T10:37:31.347Z,13.0000
2019-05-10T10:37:39.919Z,6.0000
2019-05-10T10:37:48.385Z,1.0000
2019-05-10T10:38:02.666Z,1.0000
2019-05-10T10:38:12.137Z,1.0000
2019-05-10T10:38:31.270Z,1.0000
2019-05-10T10:38:54.393Z,1.0000
2019-05-10T10:39:11.360Z,1.0000
2019-05-10T10:39:31.666Z,1.0000
2019-05-10T10:39:49.178Z,1.0000
2019-05-10T10:40:44.120Z,1.0000
2019-05-10T10:43:07.502Z,1.0000
2019-05-10T10:43:20.713Z,1.0000
2019-05-10T10:43:29.141Z,1.0000
2019-05-10T10:43:37.548Z,1.0000
2019-05-10T10:43:48.250Z,1.0000
2019-05-10T10:43:58.343Z,1.0000
2019-05-10T10:54:11.941Z,41.0000
2019-05-10T10:54:22.522Z,55.0000
2019-05-10T10:54:57.668Z,30.0000
2019-05-10T10:55:11.085Z,22.0000
2019-05-10T10:55:20.755Z,18.0000
2019-05-10T10:55:30.498Z,38.0000
2019-05-10T10:55:48.379Z,34.0000
2019-05-10T10:56:03.539Z,41.0000
2019-05-10T10:56:12.397Z,22.0000
2019-05-10T10:56:20.949Z,22.0000
2019-05-10T10:56:37.916Z,47.0000
2019-05-10T10:56:48.273Z,47.0000
2019-05-10T10:56:59.337Z,47.0000
2019-05-10T10:57:08.173Z,47.0000
2019-05-10T10:57:18.006Z,47.0000
2019-05-10T10:57:27.932Z,47.0000
2019-05-10T10:57:37.377Z,47.0000
2019-05-10T10:57:48.112Z,51.0000
2019-05-10T10:57:57.752Z,51.0000
2019-05-10T10:58:07.328Z,60.0000
2019-05-10T10:58:18.579Z,60.0000
2019-05-10T10:58:27.679Z,60.0000
2019-05-10T10:58:36.180Z,60.0000
2019-05-10T10:58:44.631Z,60.0000
2019-05-10T10:58:53.131Z,60.0000
2019-05-10T10:59:01.540Z,30.0000
2019-05-10T10:59:09.958Z,30.0000
2019-05-10T10:59:18.427Z,60.0000
2019-05-10T10:59:26.860Z,60.0000
2019-05-10T10:59:37.376Z,60.0000
2019-05-10T10:59:47.506Z,60.0000
2019-05-10T10:59:57.473Z,30.0000
2019-05-10T11:00:07.656Z,60.0000
2019-05-10T11:00:20.388Z,60.0000
2019-05-10T11:00:30.574Z,60.0000
2019-05-10T11:00:39.363Z,60.0000
2019-05-10T11:00:48.205Z,60.0000
2019-05-10T11:00:56.760Z,60.0000
2019-05-10T11:01:10.657Z,60.0000
2019-05-10T11:01:25.139Z,60.0000
2019-05-10T11:01:49.036Z,60.0000
2019-05-10T11:01:56.568Z,60.0000
2019-05-10T11:02:28.884Z,60.0000
2019-05-10T11:02:31.374Z,60.0000
2019-05-10T11:02:33.605Z,60.0000
2019-05-10T11:02:46.821Z,60.0000
2019-05-10T11:02:56.702Z,60.0000
2019-05-10T11:03:05.001Z,60.0000
2019-05-10T11:03:13.301Z,60.0000
2019-05-10T11:03:24.018Z,60.0000
2019-05-10T11:03:35.877Z,60.0000
2019-05-10T11:03:44.174Z,60.0000
2019-05-10T11:03:52.523Z,60.0000
2019-05-10T11:04:03.576Z,60.0000
2019-05-10T11:04:16.399Z,60.0000
2019-05-10T11:04:24.843Z,60.0000
2019-05-10T11:04:33.145Z,60.0000
2019-05-10T11:05:40.947Z,60.0000
2019-05-10T11:05:49.207Z,60.0000
2019-05-10T11:05:57.452Z,60.0000
2019-05-10T11:06:05.705Z,60.0000
2019-05-10T11:06:15.422Z,60.0000
2019-05-10T11:06:23.785Z,60.0000
2019-05-10T11:06:32.039Z,60.0000
2019-05-10T11:06:40.377Z,60.0000
2019-05-10T11:06:48.656Z,60.0000
2019-05-10T11:07:10.044Z,60.0000
2019-05-10T11:07:11.341Z,60.0000
2019-05-10T11:07:19.623Z,60.0000
2019-05-10T11:07:30.242Z,60.0000
2019-05-10T11:07:44.380Z,60.0000
2019-05-10T11:07:53.367Z,60.0000
2019-05-10T11:08:01.619Z,60.0000
2019-05-10T11:08:11.128Z,60.0000
2019-05-10T11:08:19.563Z,60.0000
2019-05-10T11:08:27.809Z,60.0000
2019-05-10T11:08:36.051Z,60.0000
2019-05-10T11:08:44.298Z,60.0000
2019-05-10T11:08:52.545Z,60.0000
2019-05-10T11:09:01.737Z,60.0000
2019-05-10T11:09:10.156Z,60.0000
2019-05-10T11:09:20.595Z,60.0000
2019-05-10T11:09:31.154Z,60.0000
2019-05-10T11:09:40.974Z,60.0000
2019-05-10T11:09:53.749Z,60.0000
2019-05-10T11:10:14.893Z,60.0000
2019-05-10T11:10:19.248Z,60.0000
2019-05-10T11:10:31.197Z,60.0000
2019-05-10T11:10:40.532Z,60.0000
2019-05-10T11:10:50.953Z,60.0000
2019-05-10T11:11:00.503Z,60.0000
2019-05-10T11:11:10.606Z,60.0000
2019-05-10T11:11:18.963Z,60.0000
2019-05-10T11:11:30.695Z,60.0000
2019-05-10T11:11:44.598Z,60.0000
2019-05-10T11:11:53.169Z,60.0000
2019-05-10T11:12:01.406Z,60.0000
2019-05-10T11:12:09.684Z,60.0000
2019-05-10T11:12:22.531Z,60.0000
2019-05-10T11:12:32.147Z,60.0000
2019-05-10T11:12:41.299Z,60.0000
2019-05-10T11:12:51.263Z,60.0000
2019-05-10T11:13:02.315Z,60.0000
2019-05-10T11:13:20.335Z,60.0000
2019-05-10T11:13:41.392Z,60.0000
2019-05-10T11:13:45.840Z,60.0000
